Hlavní strana
METAR-TAF:

METAR-TAF

Letiště :

Gafsa, Tunisko

zeměpisná šířka: 34-25N, zeměpisná délka: 008-49E, výška: 313 m

Aktuální stav počasí

Zpráva byla vytvořena před 46 minutami, v 12:00 UTC
Jihozápadní vítr 11 kt
Teplota 14°C
Vlhkost vzduchu 36%
Tlak 1018 hPa
Viditelnost 10 km a více
Skoro jasno ve výšce 3300 ft

METAR: DTTF 221200Z 22011KT 9999 FEW033 14/M01 Q1018 NOSIG

Čas: 13:46 (12:46 UTC)

Předpověď počasí

Zpráva byla vytvořena před 46 minutami, v 12:00 UTC
Předpověď platná od 22 v 13 UTC do 22 v 22 UTC
Jihozápadní vítr 10 kt
Viditelnost 10 km a více
Skoro jasno ve výšce 3300 ft
Dočasný
od 22 v 13 UTC do 22 v 17 UTC
Jihozápadní vítr 20 kt

TAF: DTTF 221200Z 2213/2222 23010KT 9999 FEW033 TEMPO 2213/2217 23020KT

Stav a předpovědi počasí z více než 4 000 letišť (zprávy METAR a TAF).

Červené a žluté tečky na mapě představují dostupné meteorologické stanice.

Když kurzor umístíte na tečku, zobrazí se název stanice.

Pak kliknutím zobrazíte stav a předpověď počasí.

Chcete-li změnit mapu, kliknutím na zelené tlačítko se znaménkem +mapu přiblížíte, kliknutím na zelené tlačítko se znaménkem – mapu oddálíte a kliknutím na zelené šipky přejdete na sousední mapy.


METAR-TAF: